Time;durP1;ratioP1;P1;durP2;ratioP2;P2;SDS_P1;SDS_P2;PMS_P1;PMS_P2;Temp;Humidity;BMP_temperature;BMP_pressure;BME280_temperature;BME280_humidity;BME280_pressure;Samples;Min_cycle;Max_cycle;Signal;HPM_P1;HPM_P2
2022/01/14 00:01:44;;;;;;;23.13;12.83;;;;;;;;;;5073910;28;20488;-70
2022/01/14 00:04:10;;;;;;;23.20;14.53;;;;;;;;;;5073799;28;20804;-71
2022/01/14 00:06:37;;;;;;;22.00;13.77;;;;;;;;;;5073925;28;20414;-68
2022/01/14 00:09:09;;;;;;;25.07;13.40;;;;;;;;;;5073935;28;20444;-69
2022/01/14 00:11:36;;;;;;;23.70;13.23;;;;;;;;;;5073987;28;20409;-69
2022/01/14 00:16:31;;;;;;;26.23;13.70;;;;;;;;;;5073790;28;20416;-71
2022/01/14 00:18:58;;;;;;;25.67;14.83;;;;;;;;;;5073713;28;20947;-69
2022/01/14 00:21:24;;;;;;;23.50;15.10;;;;;;;;;;5055716;28;20418;-71
2022/01/14 00:23:54;;;;;;;32.73;16.80;;;;;;;;;;5055590;28;20511;-71
2022/01/14 00:31:56;;;;;;;30.17;16.37;;;;;;;;;;5073643;28;20268;-71
2022/01/14 00:34:22;;;;;;;26.85;14.95;;;;;;;;;;5073493;28;20413;-71
2022/01/14 00:36:48;;;;;;;30.77;17.70;;;;;;;;;;5055449;28;20180;-71
2022/01/14 00:39:14;;;;;;;31.10;17.27;;;;;;;;;;5073343;28;20492;-71
2022/01/14 00:41:41;;;;;;;28.80;17.37;;;;;;;;;;5073346;28;20401;-71
2022/01/14 00:44:10;;;;;;;30.17;17.80;;;;;;;;;;5055336;28;20486;-72
2022/01/14 00:46:41;;;;;;;31.00;17.20;;;;;;;;;;5073172;28;20730;-71
2022/01/14 00:49:07;;;;;;;32.17;17.30;;;;;;;;;;5073226;28;20424;-71
2022/01/14 00:51:34;;;;;;;29.42;15.70;;;;;;;;;;5055272;28;20401;-71
2022/01/14 00:54:00;;;;;;;29.43;16.90;;;;;;;;;;5073220;28;20257;-71
2022/01/14 00:56:32;;;;;;;29.27;16.13;;;;;;;;;;5055254;28;20417;-71
2022/01/14 00:59:14;;;;;;;31.60;16.60;;;;;;;;;;5072995;28;20525;-71
2022/01/14 01:01:42;;;;;;;26.33;15.57;;;;;;;;;;5072868;28;20405;-70
2022/01/14 01:04:08;;;;;;;26.03;15.33;;;;;;;;;;5073113;28;20884;-70
2022/01/14 01:06:35;;;;;;;27.80;15.73;;;;;;;;;;5073085;28;20474;-69
2022/01/14 01:09:01;;;;;;;28.33;16.87;;;;;;;;;;5072996;28;20410;-69
2022/01/14 01:11:34;;;;;;;26.63;14.90;;;;;;;;;;5073068;28;20412;-68
2022/01/14 01:14:18;;;;;;;26.10;15.63;;;;;;;;;;5055069;28;20527;-71
2022/01/14 01:16:44;;;;;;;26.50;15.43;;;;;;;;;;5073081;28;20402;-70
2022/01/14 01:19:10;;;;;;;27.90;15.77;;;;;;;;;;5054900;28;20433;-69
2022/01/14 01:21:36;;;;;;;26.50;15.67;;;;;;;;;;5073086;28;20523;-70
2022/01/14 01:24:02;;;;;;;29.73;16.30;;;;;;;;;;5072822;28;20454;-71
2022/01/14 01:26:33;;;;;;;26.80;15.60;;;;;;;;;;5072883;28;20412;-71
2022/01/14 01:31:35;;;;;;;26.40;13.80;;;;;;;;;;5072776;28;20453;-68
2022/01/14 01:34:02;;;;;;;23.50;15.10;;;;;;;;;;5072851;28;20907;-68
2022/01/14 01:36:28;;;;;;;21.70;14.80;;;;;;;;;;5054591;28;20418;-68
2022/01/14 01:38:54;;;;;;;22.73;13.80;;;;;;;;;;5072738;28;20831;-69
2022/01/14 01:41:20;;;;;;;29.03;16.07;;;;;;;;;;5072669;28;20438;-68
2022/01/14 01:43:51;;;;;;;23.27;14.80;;;;;;;;;;5072653;28;20539;-68
2022/01/14 01:46:17;;;;;;;26.20;15.67;;;;;;;;;;5072743;28;20425;-68
2022/01/14 01:48:43;;;;;;;27.70;16.23;;;;;;;;;;5072690;28;20409;-69
2022/01/14 01:51:09;;;;;;;24.67;14.23;;;;;;;;;;5072637;28;20771;-69
2022/01/14 01:53:35;;;;;;;27.17;15.20;;;;;;;;;;5072625;28;20403;-69
2022/01/14 01:56:01;;;;;;;22.60;14.87;;;;;;;;;;5072543;28;20420;-68
2022/01/14 01:58:27;;;;;;;25.67;14.43;;;;;;;;;;5072286;28;20462;-68
2022/01/14 02:00:53;;;;;;;23.80;13.97;;;;;;;;;;5054642;28;20428;-68
2022/01/14 02:03:19;;;;;;;24.43;14.93;;;;;;;;;;5072593;28;20402;-69
2022/01/14 02:05:46;;;;;;;24.23;14.87;;;;;;;;;;5072425;28;20462;-68
2022/01/14 02:08:12;;;;;;;21.77;13.10;;;;;;;;;;5072200;28;20426;-68
2022/01/14 02:10:39;;;;;;;25.97;15.03;;;;;;;;;;5072498;28;20475;-68
2022/01/14 02:13:06;;;;;;;22.30;13.97;;;;;;;;;;5054602;28;20422;-70
2022/01/14 02:18:28;;;;;;;19.33;12.13;;;;;;;;;;5076088;28;20395;-69
2022/01/14 02:23:44;;;;;;;23.90;13.03;;;;;;;;;;5075919;28;20388;-68
2022/01/14 02:26:10;;;;;;;23.17;14.15;;;;;;;;;;5075882;28;20412;-69
2022/01/14 02:28:36;;;;;;;27.30;15.32;;;;;;;;;;5075919;28;20237;-69
2022/01/14 02:31:02;;;;;;;20.70;13.37;;;;;;;;;;5075758;28;20704;-68
2022/01/14 02:33:28;;;;;;;21.00;12.93;;;;;;;;;;5075713;28;20422;-67
2022/01/14 02:35:55;;;;;;;22.90;14.03;;;;;;;;;;5075784;28;20402;-68
2022/01/14 02:38:21;;;;;;;19.40;12.60;;;;;;;;;;5075626;28;20401;-67
2022/01/14 02:40:48;;;;;;;21.53;13.40;;;;;;;;;;5075659;28;20505;-67
2022/01/14 02:43:16;;;;;;;22.20;12.90;;;;;;;;;;5075509;28;20412;-68
2022/01/14 02:45:46;;;;;;;24.17;13.98;;;;;;;;;;5075493;28;20461;-68
2022/01/14 02:48:12;;;;;;;26.73;13.63;;;;;;;;;;5075439;28;20265;-68
2022/01/14 02:50:42;;;;;;;25.93;12.93;;;;;;;;;;5075541;28;20168;-68
2022/01/14 02:55:54;;;;;;;19.67;11.77;;;;;;;;;;5075407;28;20396;-68
2022/01/14 02:58:20;;;;;;;20.30;10.80;;;;;;;;;;5075050;28;20492;-68
2022/01/14 03:00:48;;;;;;;19.50;11.77;;;;;;;;;;5075212;28;20501;-68
2022/01/14 03:03:17;;;;;;;21.65;12.30;;;;;;;;;;5075260;28;20413;-68
2022/01/14 03:05:43;;;;;;;19.97;12.07;;;;;;;;;;5074631;28;20215;-68
2022/01/14 03:08:09;;;;;;;25.42;15.80;;;;;;;;;;5075265;28;20416;-67
2022/01/14 03:10:35;;;;;;;27.40;15.70;;;;;;;;;;5057105;28;20183;-67
2022/01/14 03:13:01;;;;;;;25.30;14.60;;;;;;;;;;5075016;28;20414;-67
2022/01/14 03:15:27;;;;;;;25.90;15.93;;;;;;;;;;5057036;28;20447;-67
2022/01/14 03:17:53;;;;;;;24.00;16.10;;;;;;;;;;5074891;28;20251;-68
2022/01/14 03:21:02;;;;;;;27.00;16.03;;;;;;;;;;5075000;28;20592;-67
2022/01/14 03:23:13;;;;;;;30.27;16.83;;;;;;;;;;5070779;28;20884;-67
2022/01/14 03:25:48;;;;;;;28.40;16.77;;;;;;;;;;5074398;28;20538;-67
2022/01/14 03:28:24;;;;;;;29.17;16.30;;;;;;;;;;5074657;28;20728;-67
2022/01/14 03:30:52;;;;;;;26.10;15.53;;;;;;;;;;5056722;28;20185;-67
2022/01/14 03:33:18;;;;;;;28.20;16.43;;;;;;;;;;5074427;28;20402;-67
2022/01/14 03:35:45;;;;;;;26.10;16.70;;;;;;;;;;5074559;28;20438;-67
2022/01/14 03:38:11;;;;;;;31.20;16.63;;;;;;;;;;5074496;28;20409;-67
2022/01/14 03:40:37;;;;;;;28.40;15.23;;;;;;;;;;5074537;28;20406;-67
2022/01/14 03:43:03;;;;;;;27.10;16.50;;;;;;;;;;5074358;28;20201;-67
2022/01/14 03:45:29;;;;;;;26.67;15.60;;;;;;;;;;5074113;28;20470;-68
2022/01/14 03:47:55;;;;;;;25.43;16.13;;;;;;;;;;5074485;28;20407;-68
2022/01/14 03:50:21;;;;;;;24.43;15.23;;;;;;;;;;5074263;28;20406;-69
2022/01/14 03:52:47;;;;;;;27.50;16.95;;;;;;;;;;5074159;28;20399;-68
2022/01/14 03:55:13;;;;;;;22.80;14.60;;;;;;;;;;5074222;28;20171;-68
2022/01/14 03:57:40;;;;;;;24.90;15.10;;;;;;;;;;5074020;28;20881;-68
2022/01/14 04:00:06;;;;;;;28.20;15.00;;;;;;;;;;5073857;28;20831;-67
2022/01/14 04:02:32;;;;;;;24.50;13.30;;;;;;;;;;5073957;28;20410;-68
2022/01/14 04:04:58;;;;;;;25.07;14.43;;;;;;;;;;5055896;28;20478;-68
2022/01/14 04:07:24;;;;;;;28.27;15.03;;;;;;;;;;5073867;28;20402;-69
2022/01/14 04:09:50;;;;;;;25.30;15.10;;;;;;;;;;5073871;28;20413;-68
2022/01/14 04:12:29;;;;;;;23.50;13.73;;;;;;;;;;5073797;28;20460;-68
2022/01/14 04:17:21;;;;;;;21.57;13.40;;;;;;;;;;5073551;28;20169;-67
2022/01/14 04:19:47;;;;;;;27.07;14.70;;;;;;;;;;5073681;28;20506;-67
2022/01/14 04:22:13;;;;;;;24.70;12.97;;;;;;;;;;5073568;28;20406;-68
2022/01/14 04:24:39;;;;;;;26.27;12.93;;;;;;;;;;5073356;28;20982;-69
2022/01/14 04:27:05;;;;;;;21.90;13.33;;;;;;;;;;5073490;28;20414;-67
2022/01/14 04:29:32;;;;;;;20.80;11.87;;;;;;;;;;5073538;28;20410;-68
2022/01/14 04:31:58;;;;;;;23.50;12.83;;;;;;;;;;5073495;28;20407;-67
2022/01/14 04:34:24;;;;;;;21.80;12.33;;;;;;;;;;5073399;28;20448;-67
2022/01/14 04:36:50;;;;;;;26.57;13.40;;;;;;;;;;5072853;28;20506;-68
2022/01/14 04:39:16;;;;;;;23.87;13.47;;;;;;;;;;5055419;28;20418;-68
2022/01/14 04:41:42;;;;;;;25.53;14.00;;;;;;;;;;5073494;28;20453;-67
2022/01/14 04:44:08;;;;;;;21.33;13.23;;;;;;;;;;5073275;28;20968;-68
2022/01/14 04:49:06;;;;;;;22.60;14.43;;;;;;;;;;5073385;28;20177;-67
2022/01/14 04:51:32;;;;;;;27.97;14.63;;;;;;;;;;5073228;28;20171;-68
2022/01/14 04:53:58;;;;;;;22.27;14.70;;;;;;;;;;5055349;28;20475;-68
2022/01/14 04:56:24;;;;;;;26.75;15.15;;;;;;;;;;5073111;28;20456;-67
2022/01/14 04:58:50;;;;;;;30.35;14.70;;;;;;;;;;5073087;28;20222;-68
2022/01/14 05:01:16;;;;;;;25.67;14.70;;;;;;;;;;5073218;28;20513;-68
2022/01/14 05:03:43;;;;;;;23.23;14.75;;;;;;;;;;5073110;28;20876;-68
2022/01/14 05:06:09;;;;;;;25.77;14.40;;;;;;;;;;5072896;28;20209;-68
2022/01/14 05:08:39;;;;;;;22.35;13.18;;;;;;;;;;5073081;28;20395;-68
2022/01/14 05:11:23;;;;;;;22.90;13.80;;;;;;;;;;5073066;28;20168;-67
2022/01/14 05:13:49;;;;;;;22.05;12.20;;;;;;;;;;5073150;28;20164;-67
2022/01/14 05:16:16;;;;;;;24.23;13.33;;;;;;;;;;5055056;28;20275;-67
2022/01/14 05:18:42;;;;;;;19.60;11.65;;;;;;;;;;5072972;28;20422;-67
2022/01/14 05:21:08;;;;;;;21.50;11.82;;;;;;;;;;5072900;28;20172;-67
2022/01/14 05:23:34;;;;;;;18.85;11.35;;;;;;;;;;5072866;28;20169;-67
2022/01/14 05:26:00;;;;;;;21.27;12.00;;;;;;;;;;5072697;28;20183;-67
2022/01/14 05:28:26;;;;;;;19.23;12.50;;;;;;;;;;5072839;28;20408;-67
2022/01/14 05:30:52;;;;;;;20.30;11.97;;;;;;;;;;5072861;28;20752;-68
2022/01/14 05:33:18;;;;;;;18.67;11.83;;;;;;;;;;5072899;28;20403;-68
2022/01/14 05:35:44;;;;;;;32.92;17.60;;;;;;;;;;5072791;28;20410;-68
2022/01/14 05:38:10;;;;;;;27.95;17.50;;;;;;;;;;5072604;28;20206;-68
2022/01/14 05:40:36;;;;;;;32.03;17.77;;;;;;;;;;5072658;28;20171;-68
2022/01/14 05:43:03;;;;;;;28.88;16.50;;;;;;;;;;5072790;28;20175;-67
2022/01/14 05:45:29;;;;;;;27.45;16.77;;;;;;;;;;5072405;28;20215;-67
2022/01/14 05:47:55;;;;;;;26.08;16.42;;;;;;;;;;5072512;28;20264;-68
2022/01/14 05:50:23;;;;;;;27.63;16.67;;;;;;;;;;5058314;28;20228;-67
2022/01/14 05:52:49;;;;;;;31.05;15.65;;;;;;;;;;5058592;28;20177;-67
2022/01/14 05:55:16;;;;;;;31.70;17.47;;;;;;;;;;5076470;28;20271;-67
2022/01/14 05:57:42;;;;;;;27.25;15.23;;;;;;;;;;5076264;28;20481;-68
2022/01/14 06:00:10;;;;;;;31.33;15.50;;;;;;;;;;5090630;28;20758;-67
2022/01/14 06:02:36;;;;;;;25.07;14.70;;;;;;;;;;5096512;28;20407;-67
2022/01/14 06:05:02;;;;;;;25.47;14.20;;;;;;;;;;5096455;28;20456;-69
2022/01/14 06:07:28;;;;;;;29.83;16.07;;;;;;;;;;5096428;28;20803;-67
2022/01/14 06:09:54;;;;;;;28.73;14.30;;;;;;;;;;5096386;28;20406;-69
2022/01/14 06:12:20;;;;;;;25.40;14.37;;;;;;;;;;5096371;28;20914;-69
2022/01/14 06:14:46;;;;;;;23.15;13.85;;;;;;;;;;5096484;28;20894;-68
2022/01/14 06:17:12;;;;;;;21.13;12.87;;;;;;;;;;5096303;28;20175;-67
2022/01/14 06:19:38;;;;;;;22.08;12.77;;;;;;;;;;5096380;28;20401;-67
2022/01/14 06:22:04;;;;;;;23.03;13.37;;;;;;;;;;5096309;28;20183;-67
2022/01/14 06:24:30;;;;;;;19.73;11.73;;;;;;;;;;5096050;28;20456;-67
2022/01/14 06:26:56;;;;;;;24.05;12.68;;;;;;;;;;5096145;28;20171;-68
2022/01/14 06:29:22;;;;;;;20.27;12.33;;;;;;;;;;5094764;28;20181;-68
2022/01/14 06:31:48;;;;;;;27.00;13.10;;;;;;;;;;5094886;28;20492;-69
2022/01/14 06:34:14;;;;;;;21.40;12.90;;;;;;;;;;5095912;28;20904;-68
2022/01/14 06:36:41;;;;;;;22.92;13.82;;;;;;;;;;5095944;28;20448;-68
2022/01/14 06:39:08;;;;;;;22.75;14.45;;;;;;;;;;5095922;28;20201;-68
2022/01/14 06:41:34;;;;;;;22.80;13.90;;;;;;;;;;5094602;28;20224;-69
2022/01/14 06:44:00;;;;;;;20.93;13.13;;;;;;;;;;5094471;28;20468;-69
2022/01/14 06:46:26;;;;;;;27.47;13.30;;;;;;;;;;5095698;28;20446;-68
2022/01/14 06:48:52;;;;;;;18.90;12.50;;;;;;;;;;5094442;28;20469;-69
2022/01/14 06:51:18;;;;;;;18.43;12.00;;;;;;;;;;5095727;28;20845;-68
2022/01/14 06:53:44;;;;;;;19.27;11.90;;;;;;;;;;5095692;28;20491;-68
2022/01/14 06:56:14;;;;;;;24.27;12.40;;;;;;;;;;5095588;28;20786;-69
2022/01/14 06:58:40;;;;;;;27.80;15.38;;;;;;;;;;5089668;28;20687;-69
2022/01/14 07:01:06;;;;;;;29.73;17.57;;;;;;;;;;5056794;28;20238;-68
2022/01/14 07:03:33;;;;;;;29.38;16.73;;;;;;;;;;5075205;28;20427;-68
2022/01/14 07:05:59;;;;;;;25.40;16.42;;;;;;;;;;5074896;28;20200;-68
2022/01/14 07:08:25;;;;;;;25.50;15.60;;;;;;;;;;5075026;28;20233;-70
2022/01/14 07:10:51;;;;;;;30.57;16.40;;;;;;;;;;5074917;28;20896;-69
2022/01/14 07:13:17;;;;;;;26.10;15.25;;;;;;;;;;5075105;28;20819;-70
2022/01/14 07:15:43;;;;;;;30.37;16.33;;;;;;;;;;5074804;28;20171;-68
2022/01/14 07:18:09;;;;;;;27.33;15.18;;;;;;;;;;5075005;28;20463;-72
2022/01/14 07:20:37;;;;;;;26.00;15.17;;;;;;;;;;5057083;28;20270;-70
2022/01/14 07:23:03;;;;;;;26.02;16.20;;;;;;;;;;5074876;28;20407;-72
2022/01/14 07:25:29;;;;;;;27.80;16.50;;;;;;;;;;5056572;28;20566;-68
2022/01/14 07:27:56;;;;;;;26.77;16.55;;;;;;;;;;5074658;28;20168;-69
2022/01/14 07:30:22;;;;;;;29.02;17.13;;;;;;;;;;5074664;28;20182;-69
2022/01/14 07:32:49;;;;;;;24.77;16.48;;;;;;;;;;5074654;28;20264;-70
2022/01/14 07:35:15;;;;;;;29.20;16.98;;;;;;;;;;5074571;28;20276;-69
2022/01/14 07:37:41;;;;;;;31.52;18.88;;;;;;;;;;5074526;28;20167;-71
2022/01/14 07:40:08;;;;;;;31.00;17.67;;;;;;;;;;5056545;28;20184;-68
2022/01/14 07:42:34;;;;;;;28.23;17.17;;;;;;;;;;5074326;28;20627;-69
2022/01/14 07:45:00;;;;;;;25.20;16.10;;;;;;;;;;5074129;28;20215;-70
2022/01/14 07:47:26;;;;;;;27.13;16.25;;;;;;;;;;5074193;28;20179;-68
2022/01/14 07:49:53;;;;;;;36.17;18.37;;;;;;;;;;5074402;28;20177;-67
2022/01/14 07:52:19;;;;;;;26.77;17.17;;;;;;;;;;5074148;28;20452;-68
2022/01/14 07:54:45;;;;;;;36.55;18.77;;;;;;;;;;5074088;28;20313;-70
2022/01/14 07:57:11;;;;;;;23.38;15.82;;;;;;;;;;5073851;28;20351;-69
2022/01/14 07:59:38;;;;;;;29.87;16.50;;;;;;;;;;5073776;28;20239;-68
2022/01/14 08:02:04;;;;;;;27.98;16.45;;;;;;;;;;5073960;28;20751;-68
2022/01/14 08:04:33;;;;;;;27.03;16.67;;;;;;;;;;5073784;28;20665;-69
2022/01/14 08:07:08;;;;;;;25.73;14.57;;;;;;;;;;5073739;28;20414;-67
2022/01/14 08:09:39;;;;;;;26.10;14.75;;;;;;;;;;5074026;28;20266;-70
2022/01/14 08:12:06;;;;;;;30.57;15.23;;;;;;;;;;5073055;28;20188;-70
2022/01/14 08:14:32;;;;;;;23.95;15.25;;;;;;;;;;5073795;28;20406;-69
2022/01/14 08:16:58;;;;;;;25.83;15.50;;;;;;;;;;5073690;28;20203;-69
2022/01/14 08:19:24;;;;;;;26.83;14.50;;;;;;;;;;5073806;28;20408;-70
2022/01/14 08:21:50;;;;;;;22.13;13.60;;;;;;;;;;5073669;28;20885;-69
2022/01/14 08:24:16;;;;;;;21.73;14.50;;;;;;;;;;5055647;28;20476;-71
2022/01/14 08:26:42;;;;;;;26.60;14.10;;;;;;;;;;5073450;28;20428;-69
2022/01/14 08:29:08;;;;;;;22.90;13.03;;;;;;;;;;5073617;28;20405;-71
2022/01/14 08:31:34;;;;;;;19.60;12.60;;;;;;;;;;5073466;28;20425;-68
2022/01/14 08:34:00;;;;;;;26.10;14.70;;;;;;;;;;5073526;28;20426;-69
2022/01/14 08:36:29;;;;;;;17.70;13.23;;;;;;;;;;5073320;28;20810;-70
2022/01/14 08:38:55;;;;;;;23.23;13.80;;;;;;;;;;5073511;28;20417;-68
2022/01/14 08:41:23;;;;;;;20.43;13.43;;;;;;;;;;5055516;28;20416;-70
2022/01/14 08:43:49;;;;;;;23.20;13.97;;;;;;;;;;5073353;28;20436;-71
2022/01/14 08:46:15;;;;;;;23.03;13.07;;;;;;;;;;5055061;28;20429;-73
2022/01/14 08:48:41;;;;;;;22.20;14.10;;;;;;;;;;5055339;28;20406;-70
2022/01/14 08:51:07;;;;;;;23.33;14.73;;;;;;;;;;5055097;28;20550;-70
2022/01/14 08:53:33;;;;;;;26.40;14.60;;;;;;;;;;5073083;28;20401;-70
2022/01/14 08:55:59;;;;;;;23.37;14.70;;;;;;;;;;5073066;28;20401;-71
2022/01/14 08:58:26;;;;;;;26.30;14.33;;;;;;;;;;5073034;28;20503;-71
2022/01/14 09:00:53;;;;;;;25.00;14.93;;;;;;;;;;5055355;28;20513;-71
2022/01/14 09:03:19;;;;;;;34.50;16.50;;;;;;;;;;5073192;28;20405;-70
2022/01/14 09:05:45;;;;;;;23.87;14.00;;;;;;;;;;5072846;28;20476;-72
2022/01/14 09:08:11;;;;;;;26.00;15.00;;;;;;;;;;5073147;28;20810;-72
2022/01/14 09:10:38;;;;;;;24.10;14.10;;;;;;;;;;5073016;28;20418;-69
2022/01/14 09:13:05;;;;;;;24.97;14.80;;;;;;;;;;5073011;28;20428;-72
2022/01/14 09:15:31;;;;;;;24.00;14.90;;;;;;;;;;5054968;28;20912;-70
2022/01/14 09:17:57;;;;;;;22.30;14.50;;;;;;;;;;5072768;28;20885;-71
2022/01/14 09:20:23;;;;;;;27.60;15.53;;;;;;;;;;5072911;28;20499;-71
2022/01/14 09:22:51;;;;;;;31.67;16.63;;;;;;;;;;5056120;28;20405;-70
2022/01/14 09:25:18;;;;;;;24.40;15.97;;;;;;;;;;5076799;28;20846;-70
2022/01/14 09:27:44;;;;;;;25.27;14.20;;;;;;;;;;5076981;28;20402;-70
2022/01/14 09:30:11;;;;;;;23.37;15.33;;;;;;;;;;5076899;28;20410;-70
2022/01/14 09:32:37;;;;;;;20.30;14.00;;;;;;;;;;5076964;28;20402;-71
2022/01/14 09:35:05;;;;;;;21.43;13.70;;;;;;;;;;5058872;28;20925;-71
2022/01/14 09:37:31;;;;;;;18.33;12.73;;;;;;;;;;5076706;28;20745;-70
2022/01/14 09:39:58;;;;;;;19.53;12.77;;;;;;;;;;5076802;28;20405;-70
2022/01/14 09:42:24;;;;;;;19.63;12.43;;;;;;;;;;5076687;28;20434;-70
2022/01/14 09:44:50;;;;;;;22.97;14.20;;;;;;;;;;5076333;28;20547;-69
2022/01/14 09:47:17;;;;;;;23.20;13.97;;;;;;;;;;5076501;28;20413;-71
2022/01/14 09:49:44;;;;;;;18.30;13.07;;;;;;;;;;5076608;28;20395;-68
2022/01/14 09:52:11;;;;;;;20.63;13.80;;;;;;;;;;5076494;28;20406;-69
2022/01/14 09:54:37;;;;;;;21.17;13.00;;;;;;;;;;5076406;28;20512;-68
2022/01/14 09:57:03;;;;;;;24.40;14.13;;;;;;;;;;5076298;28;20961;-68
2022/01/14 09:59:29;;;;;;;25.83;14.80;;;;;;;;;;5076073;28;20530;-69
2022/01/14 10:01:57;;;;;;;21.60;14.03;;;;;;;;;;5076247;28;20892;-69
2022/01/14 10:04:23;;;;;;;22.83;13.63;;;;;;;;;;5076193;28;20457;-69
2022/01/14 10:06:56;;;;;;;22.87;14.20;;;;;;;;;;5075985;28;20889;-69
2022/01/14 10:09:33;;;;;;;21.20;12.33;;;;;;;;;;5076069;28;20402;-68
2022/01/14 10:12:01;;;;;;;17.67;12.47;;;;;;;;;;5075936;28;20445;-70
2022/01/14 10:14:28;;;;;;;20.60;12.90;;;;;;;;;;5076042;28;20403;-69
2022/01/14 10:16:55;;;;;;;24.90;12.50;;;;;;;;;;5075763;28;20410;-69
2022/01/14 10:19:22;;;;;;;20.63;13.43;;;;;;;;;;5075993;28;20396;-69
2022/01/14 10:21:49;;;;;;;20.37;12.80;;;;;;;;;;5075879;28;20416;-69
2022/01/14 10:24:15;;;;;;;21.80;13.67;;;;;;;;;;5075833;28;20555;-68
2022/01/14 10:26:52;;;;;;;17.80;12.33;;;;;;;;;;5057649;28;20418;-70
2022/01/14 10:29:38;;;;;;;19.37;13.23;;;;;;;;;;5057697;28;20417;-69
2022/01/14 10:32:06;;;;;;;18.60;12.40;;;;;;;;;;5075649;28;20413;-69
2022/01/14 10:34:34;;;;;;;24.57;13.40;;;;;;;;;;5057078;28;20425;-70
2022/01/14 10:37:09;;;;;;;20.83;13.63;;;;;;;;;;5075741;28;20398;-70
2022/01/14 10:39:42;;;;;;;21.83;14.50;;;;;;;;;;5075602;28;20763;-70
2022/01/14 10:42:21;;;;;;;21.47;14.10;;;;;;;;;;5075676;28;20496;-70
2022/01/14 10:44:47;;;;;;;22.73;15.10;;;;;;;;;;5075474;28;20962;-70
2022/01/14 10:47:14;;;;;;;24.23;15.90;;;;;;;;;;5075468;28;20883;-69
2022/01/14 10:49:42;;;;;;;24.97;15.83;;;;;;;;;;5075394;28;20401;-69
2022/01/14 10:52:13;;;;;;;23.90;16.13;;;;;;;;;;5075371;28;20873;-69
2022/01/14 10:54:43;;;;;;;27.00;15.97;;;;;;;;;;5075338;28;20434;-69
2022/01/14 10:57:13;;;;;;;25.93;16.73;;;;;;;;;;5075233;28;20433;-70
2022/01/14 10:59:39;;;;;;;27.53;17.10;;;;;;;;;;5074988;28;20453;-69
2022/01/14 11:02:25;;;;;;;26.00;16.83;;;;;;;;;;5075272;28;20401;-69
2022/01/14 11:05:01;;;;;;;27.23;17.37;;;;;;;;;;5056953;28;20473;-69
2022/01/14 11:07:27;;;;;;;27.27;17.43;;;;;;;;;;5075107;28;20395;-68
2022/01/14 11:09:53;;;;;;;24.73;16.83;;;;;;;;;;5075062;28;20453;-69
2022/01/14 11:12:19;;;;;;;26.13;18.00;;;;;;;;;;5074952;28;20430;-68
2022/01/14 11:14:46;;;;;;;26.20;17.63;;;;;;;;;;5074943;28;20484;-69
2022/01/14 11:17:12;;;;;;;28.13;17.53;;;;;;;;;;5074758;28;20402;-68
2022/01/14 11:19:39;;;;;;;26.00;17.20;;;;;;;;;;5074836;28;20893;-69
2022/01/14 11:24:49;;;;;;;28.17;17.20;;;;;;;;;;5074611;28;20499;-69
2022/01/14 11:27:17;;;;;;;31.03;17.20;;;;;;;;;;5074688;28;20402;-69
2022/01/14 11:29:45;;;;;;;29.33;17.63;;;;;;;;;;5056654;28;20755;-69
2022/01/14 11:32:11;;;;;;;28.90;16.93;;;;;;;;;;5074567;28;20540;-69
2022/01/14 11:34:42;;;;;;;28.83;16.73;;;;;;;;;;5074473;28;20416;-69
2022/01/14 11:37:31;;;;;;;29.30;16.80;;;;;;;;;;5074324;28;20505;-68
2022/01/14 11:40:02;;;;;;;26.47;16.97;;;;;;;;;;5074543;28;20409;-68
2022/01/14 11:42:42;;;;;;;27.50;17.93;;;;;;;;;;5074456;28;20402;-67
2022/01/14 11:45:08;;;;;;;27.83;17.00;;;;;;;;;;5074111;28;20466;-68
2022/01/14 11:47:40;;;;;;;25.77;17.10;;;;;;;;;;5074307;28;20520;-70
2022/01/14 11:50:08;;;;;;;22.30;16.20;;;;;;;;;;5074207;28;20462;-68
2022/01/14 11:52:35;;;;;;;25.20;16.47;;;;;;;;;;5056441;28;20410;-68
2022/01/14 11:55:01;;;;;;;27.13;16.90;;;;;;;;;;5074136;28;20444;-69
2022/01/14 11:57:42;;;;;;;27.27;17.67;;;;;;;;;;5073916;28;20405;-69
2022/01/14 12:02:53;;;;;;;25.53;17.67;;;;;;;;;;5074009;28;20441;-68
2022/01/14 12:05:20;;;;;;;28.10;18.50;;;;;;;;;;5073743;28;20832;-68
2022/01/14 12:08:05;;;;;;;32.87;18.93;;;;;;;;;;5073897;28;20480;-68
2022/01/14 12:10:48;;;;;;;28.07;17.33;;;;;;;;;;5073853;28;20946;-68
2022/01/14 12:13:21;;;;;;;23.80;16.67;;;;;;;;;;5073758;28;20401;-68
2022/01/14 12:15:56;;;;;;;26.80;17.20;;;;;;;;;;5073727;28;20409;-68
2022/01/14 12:18:40;;;;;;;27.73;18.70;;;;;;;;;;5073719;28;20404;-68
2022/01/14 12:21:06;;;;;;;28.33;17.50;;;;;;;;;;5073447;28;20892;-69
2022/01/14 12:23:32;;;;;;;29.00;19.90;;;;;;;;;;5073596;28;20402;-68
2022/01/14 12:26:12;;;;;;;29.37;18.70;;;;;;;;;;5073277;28;20483;-68
2022/01/14 12:28:38;;;;;;;26.67;18.10;;;;;;;;;;5073381;28;20408;-68
2022/01/14 12:31:04;;;;;;;26.30;18.30;;;;;;;;;;5073341;28;20413;-68
2022/01/14 12:33:42;;;;;;;26.90;17.67;;;;;;;;;;5073387;28;20921;-68
2022/01/14 12:36:12;;;;;;;30.37;18.47;;;;;;;;;;5055357;28;20392;-68
2022/01/14 12:38:40;;;;;;;30.33;19.57;;;;;;;;;;5073276;28;20403;-69
2022/01/14 12:41:13;;;;;;;29.20;19.37;;;;;;;;;;5073342;28;20406;-69
2022/01/14 12:43:47;;;;;;;28.83;17.27;;;;;;;;;;5055418;28;20488;-68
2022/01/14 12:46:33;;;;;;;34.23;18.47;;;;;;;;;;5073009;28;20464;-70
2022/01/14 12:49:01;;;;;;;30.33;18.90;;;;;;;;;;5073292;28;20441;-68
2022/01/14 12:51:29;;;;;;;30.43;18.90;;;;;;;;;;5073161;28;20901;-69
2022/01/14 12:53:59;;;;;;;29.60;19.23;;;;;;;;;;5073245;28;20405;-68
2022/01/14 12:56:26;;;;;;;29.03;18.50;;;;;;;;;;5055159;28;20802;-68
2022/01/14 12:58:55;;;;;;;28.27;17.57;;;;;;;;;;5072325;28;20467;-69
2022/01/14 13:01:28;;;;;;;33.13;18.73;;;;;;;;;;5073110;28;20397;-68
2022/01/14 13:03:56;;;;;;;25.37;17.30;;;;;;;;;;5055060;28;20783;-68
2022/01/14 13:06:21;;;;;;;27.97;18.70;;;;;;;;;;5072973;28;20421;-69
2022/01/14 13:08:58;;;;;;;33.23;18.13;;;;;;;;;;5073025;28;20411;-69
2022/01/14 13:11:24;;;;;;;24.97;17.40;;;;;;;;;;5072800;28;20427;-69
2022/01/14 13:13:57;;;;;;;29.57;18.77;;;;;;;;;;5072711;28;20397;-69
2022/01/14 13:16:23;;;;;;;28.40;18.10;;;;;;;;;;5072812;28;20432;-70
2022/01/14 13:18:49;;;;;;;30.30;18.83;;;;;;;;;;5072870;28;20906;-69
2022/01/14 13:21:16;;;;;;;35.60;19.77;;;;;;;;;;5073057;28;20900;-69
2022/01/14 13:23:45;;;;;;;35.90;19.60;;;;;;;;;;5072873;28;20408;-69
2022/01/14 13:26:11;;;;;;;34.33;19.80;;;;;;;;;;5072664;28;20471;-69
2022/01/14 13:28:38;;;;;;;35.33;18.90;;;;;;;;;;5072876;28;20403;-70
2022/01/14 13:31:09;;;;;;;33.97;18.60;;;;;;;;;;5055141;28;20419;-69
2022/01/14 13:33:36;;;;;;;30.77;19.17;;;;;;;;;;5072850;28;20399;-70
2022/01/14 13:36:03;;;;;;;29.30;17.80;;;;;;;;;;5072751;28;20417;-69
2022/01/14 13:38:29;;;;;;;24.27;17.37;;;;;;;;;;5072837;28;20413;-70
2022/01/14 13:40:57;;;;;;;31.50;18.70;;;;;;;;;;5072613;28;20875;-69
2022/01/14 13:43:35;;;;;;;26.13;16.83;;;;;;;;;;5072761;28;20409;-69
2022/01/14 13:46:06;;;;;;;28.23;18.50;;;;;;;;;;5054573;28;20482;-69
2022/01/14 13:48:40;;;;;;;27.50;19.23;;;;;;;;;;5072818;28;20443;-68
2022/01/14 13:51:11;;;;;;;26.67;17.97;;;;;;;;;;5072643;28;20405;-68
2022/01/14 13:53:41;;;;;;;29.30;18.50;;;;;;;;;;5072730;28;20412;-68
2022/01/14 13:56:12;;;;;;;31.23;19.13;;;;;;;;;;5072577;28;20414;-69
2022/01/14 13:58:40;;;;;;;30.20;20.30;;;;;;;;;;5072423;28;20493;-69
2022/01/14 14:01:07;;;;;;;27.40;18.70;;;;;;;;;;5072631;28;20396;-68
2022/01/14 14:03:40;;;;;;;30.20;18.90;;;;;;;;;;5072530;28;20763;-68
2022/01/14 14:06:11;;;;;;;33.77;19.20;;;;;;;;;;5072444;28;20543;-69
2022/01/14 14:08:44;;;;;;;29.63;18.63;;;;;;;;;;5072554;28;20405;-68
2022/01/14 14:16:46;;;;;;;30.90;18.20;;;;;;;;;;5075994;28;20399;-67
2022/01/14 14:19:12;;;;;;;25.77;17.97;;;;;;;;;;5075981;28;20411;-69
2022/01/14 14:21:40;;;;;;;28.83;19.27;;;;;;;;;;5075988;28;20405;-69
2022/01/14 14:24:09;;;;;;;32.03;19.37;;;;;;;;;;5075926;28;20807;-69
2022/01/14 14:26:35;;;;;;;31.23;19.93;;;;;;;;;;5075778;28;20417;-68
2022/01/14 14:29:21;;;;;;;30.57;18.43;;;;;;;;;;5075849;28;20401;-69
2022/01/14 14:31:48;;;;;;;28.33;17.63;;;;;;;;;;5075615;28;20421;-71
2022/01/14 14:34:14;;;;;;;31.20;19.07;;;;;;;;;;5075654;28;20492;-71
2022/01/14 14:36:41;;;;;;;31.90;18.47;;;;;;;;;;5075614;28;20430;-68
2022/01/14 14:39:07;;;;;;;30.67;19.80;;;;;;;;;;5075666;28;20416;-68
2022/01/14 14:41:33;;;;;;;30.50;19.60;;;;;;;;;;5075610;28;20430;-69
2022/01/14 14:43:59;;;;;;;32.93;20.60;;;;;;;;;;5057371;28;20408;-70
2022/01/14 14:46:26;;;;;;;35.03;18.17;;;;;;;;;;5075410;28;21002;-70
2022/01/14 14:48:53;;;;;;;31.00;19.77;;;;;;;;;;5075499;28;20416;-69
2022/01/14 14:51:19;;;;;;;34.93;20.80;;;;;;;;;;5075339;28;20505;-69
2022/01/14 14:53:45;;;;;;;29.63;19.60;;;;;;;;;;5075464;28;20411;-71
2022/01/14 14:56:11;;;;;;;25.50;19.73;;;;;;;;;;5075468;28;20411;-70